Time;durP1;ratioP1;P1;durP2;ratioP2;P2;SDS_P1;SDS_P2;PMS_P1;PMS_P2;Temp;Humidity;BMP_temperature;BMP_pressure;BME280_temperature;BME280_humidity;BME280_pressure;Samples;Min_cycle;Max_cycle;Signal;HPM_P1;HPM_P2
2023/01/07 00:01:29;;;;;;;;;;;18.60;52.90;;;;;;5072589;28;20026;-53
2023/01/07 00:04:31;;;;;;;;;;;18.60;53.00;;;;;;5072780;28;19936;-53
2023/01/07 00:06:58;;;;;;;;;;;18.50;52.80;;;;;;5069197;28;19939;-53
2023/01/07 00:09:23;;;;;;;;;;;18.50;52.80;;;;;;5076085;28;19912;-53
2023/01/07 00:11:49;;;;;;;;;;;18.50;52.80;;;;;;5071821;28;19927;-53
2023/01/07 00:14:14;;;;;;;;;;;18.50;52.80;;;;;;5070950;28;19916;-53
2023/01/07 00:16:40;;;;;;;;;;;18.50;53.00;;;;;;5071641;28;19912;-53
2023/01/07 00:19:06;;;;;;;;;;;18.40;52.90;;;;;;5070615;28;19912;-53
2023/01/07 00:21:31;;;;;;;;;;;18.40;52.90;;;;;;5072191;28;19983;-53
2023/01/07 00:23:57;;;;;;;;;;;18.40;52.90;;;;;;5071148;28;19917;-53
2023/01/07 00:26:23;;;;;;;;;;;18.40;52.90;;;;;;5070918;28;19919;-53
2023/01/07 00:28:49;;;;;;;;;;;18.40;52.90;;;;;;5072059;28;19921;-53
2023/01/07 00:31:15;;;;;;;;;;;18.30;52.80;;;;;;5075028;28;20451;-53
2023/01/07 00:36:18;;;;;;;;;;;18.30;53.00;;;;;;5101740;28;19916;-54
2023/01/07 00:38:44;;;;;;;;;;;18.30;53.00;;;;;;5074394;28;19973;-52
2023/01/07 00:41:09;;;;;;;;;;;18.30;53.00;;;;;;5074005;28;19913;-53
2023/01/07 00:43:35;;;;;;;;;;;18.30;53.10;;;;;;5079408;28;19915;-53
2023/01/07 00:46:00;;;;;;;;;;;18.20;53.00;;;;;;5059445;28;20007;-52
2023/01/07 00:48:26;;;;;;;;;;;18.20;53.00;;;;;;5077973;28;19924;-51
2023/01/07 00:50:51;;;;;;;;;;;18.20;53.10;;;;;;5073854;28;19973;-53
2023/01/07 00:53:17;;;;;;;;;;;18.20;53.00;;;;;;5075600;28;19916;-52
2023/01/07 00:55:42;;;;;;;;;;;18.20;53.20;;;;;;5074636;28;19919;-52
2023/01/07 00:58:10;;;;;;;;;;;18.10;53.20;;;;;;5073864;28;19912;-52
2023/01/07 01:00:35;;;;;;;;;;;18.10;53.20;;;;;;5107210;28;20096;-52
2023/01/07 01:03:01;;;;;;;;;;;18.10;53.20;;;;;;5073967;28;20292;-52
2023/01/07 01:05:26;;;;;;;;;;;18.10;53.20;;;;;;5073431;28;20388;-52
2023/01/07 01:07:52;;;;;;;;;;;18.10;53.20;;;;;;5075133;28;20371;-52
2023/01/07 01:10:17;;;;;;;;;;;18.10;53.20;;;;;;5072399;28;19923;-51
2023/01/07 01:12:43;;;;;;;;;;;18.10;53.30;;;;;;5087698;28;19912;-52
2023/01/07 01:15:11;;;;;;;;;;;18.00;53.30;;;;;;5072998;28;19966;-52
2023/01/07 01:17:37;;;;;;;;;;;18.00;53.30;;;;;;5076679;28;20033;-53
2023/01/07 01:20:02;;;;;;;;;;;18.00;53.30;;;;;;5069987;28;19956;-53
2023/01/07 01:22:28;;;;;;;;;;;18.00;53.30;;;;;;5071257;28;19972;-53
2023/01/07 01:24:53;;;;;;;;;;;18.00;53.30;;;;;;5073183;28;19913;-53
2023/01/07 01:27:19;;;;;;;;;;;18.00;53.30;;;;;;5073337;28;19935;-53
2023/01/07 01:29:44;;;;;;;;;;;18.00;53.30;;;;;;5072775;28;19965;-52
2023/01/07 01:32:09;;;;;;;;;;;17.90;53.20;;;;;;5072901;28;19928;-52
2023/01/07 01:34:35;;;;;;;;;;;17.90;53.20;;;;;;5072096;28;19919;-52
2023/01/07 01:37:00;;;;;;;;;;;17.90;53.20;;;;;;5072525;28;19917;-52
2023/01/07 01:39:26;;;;;;;;;;;17.90;53.20;;;;;;5072858;28;20337;-52
2023/01/07 01:41:51;;;;;;;;;;;17.90;53.20;;;;;;5071236;28;19917;-51
2023/01/07 01:44:35;;;;;;;;;;;17.80;53.20;;;;;;5081463;28;19912;-52
2023/01/07 01:47:21;;;;;;;;;;;17.80;53.20;;;;;;5066080;28;19967;-52
2023/01/07 01:49:54;;;;;;;;;;;17.80;53.20;;;;;;5079116;28;19918;-52
2023/01/07 01:52:20;;;;;;;;;;;17.80;53.20;;;;;;5071166;28;20420;-52
2023/01/07 01:54:50;;;;;;;;;;;17.80;53.20;;;;;;5061161;28;19989;-52
2023/01/07 01:57:16;;;;;;;;;;;17.80;53.20;;;;;;5073189;28;20054;-52
2023/01/07 01:59:42;;;;;;;;;;;17.70;53.10;;;;;;5088822;28;19966;-53
2023/01/07 02:02:08;;;;;;;;;;;17.70;53.20;;;;;;5073482;28;19917;-54
2023/01/07 02:04:33;;;;;;;;;;;17.70;53.20;;;;;;5072119;28;19939;-54
2023/01/07 02:07:02;;;;;;;;;;;17.70;53.20;;;;;;5071901;28;19913;-52
2023/01/07 02:09:28;;;;;;;;;;;17.70;53.20;;;;;;5072889;28;20300;-52
2023/01/07 02:11:56;;;;;;;;;;;17.70;53.10;;;;;;5073510;28;19920;-51
2023/01/07 02:14:30;;;;;;;;;;;17.80;53.20;;;;;;5071352;28;19924;-54
2023/01/07 02:17:02;;;;;;;;;;;17.90;53.20;;;;;;5073687;28;19920;-52
2023/01/07 02:19:47;;;;;;;;;;;17.90;52.80;;;;;;5071903;28;20441;-52
2023/01/07 02:22:30;;;;;;;;;;;18.00;52.70;;;;;;5003240;28;1724511;-51
2023/01/07 02:25:06;;;;;;;;;;;18.10;52.40;;;;;;5073258;28;20010;-52
2023/01/07 02:27:37;;;;;;;;;;;18.20;52.10;;;;;;5072633;28;19913;-52
2023/01/07 02:30:10;;;;;;;;;;;18.40;51.80;;;;;;5073587;28;19912;-53
2023/01/07 02:32:38;;;;;;;;;;;18.50;51.50;;;;;;5072599;28;20052;-52
2023/01/07 02:35:07;;;;;;;;;;;18.60;51.30;;;;;;5073197;28;19923;-53
2023/01/07 02:37:52;;;;;;;;;;;18.70;51.00;;;;;;5072732;28;19958;-53
2023/01/07 02:40:21;;;;;;;;;;;18.80;50.90;;;;;;5065872;28;19916;-53
2023/01/07 02:42:51;;;;;;;;;;;18.80;50.80;;;;;;5071250;28;19919;-53
2023/01/07 02:45:18;;;;;;;;;;;18.90;50.80;;;;;;5066497;28;20376;-53
2023/01/07 02:47:45;;;;;;;;;;;18.90;50.70;;;;;;5079186;28;19917;-53
2023/01/07 02:50:11;;;;;;;;;;;18.80;50.80;;;;;;5080470;28;19966;-53
2023/01/07 02:52:36;;;;;;;;;;;18.80;51.00;;;;;;5074315;28;19916;-53
2023/01/07 02:55:03;;;;;;;;;;;18.70;51.20;;;;;;5073263;28;19966;-53
2023/01/07 02:57:31;;;;;;;;;;;18.60;51.30;;;;;;5073820;28;19916;-53
2023/01/07 02:59:57;;;;;;;;;;;18.50;51.40;;;;;;5073588;28;19912;-53
2023/01/07 03:02:22;;;;;;;;;;;18.50;51.60;;;;;;5074084;28;19919;-53
2023/01/07 03:05:09;;;;;;;;;;;18.40;51.60;;;;;;5088616;28;19920;-53
2023/01/07 03:07:54;;;;;;;;;;;18.40;51.70;;;;;;5063180;28;19912;-53
2023/01/07 03:10:24;;;;;;;;;;;18.30;51.80;;;;;;5072868;28;19922;-53
2023/01/07 03:12:51;;;;;;;;;;;18.30;51.90;;;;;;5070583;28;19912;-53
2023/01/07 03:15:18;;;;;;;;;;;18.30;51.90;;;;;;5073287;28;19958;-53
2023/01/07 03:18:03;;;;;;;;;;;18.20;52.00;;;;;;5071604;28;20326;-53
2023/01/07 03:20:29;;;;;;;;;;;18.20;52.00;;;;;;5103755;28;19916;-53
2023/01/07 03:22:55;;;;;;;;;;;18.20;52.10;;;;;;5059020;28;19921;-53
2023/01/07 03:25:21;;;;;;;;;;;18.10;52.10;;;;;;5072132;28;20295;-53
2023/01/07 03:27:46;;;;;;;;;;;18.10;52.10;;;;;;5072958;28;20345;-53
2023/01/07 03:30:12;;;;;;;;;;;18.10;52.20;;;;;;5104805;28;19966;-53
2023/01/07 03:32:39;;;;;;;;;;;18.10;52.20;;;;;;5070677;28;20512;-53
2023/01/07 03:35:04;;;;;;;;;;;18.10;52.10;;;;;;5072527;28;20388;-53
2023/01/07 03:37:30;;;;;;;;;;;18.20;52.10;;;;;;5073387;28;19962;-53
2023/01/07 03:39:55;;;;;;;;;;;18.20;52.10;;;;;;5071438;28;20387;-53
2023/01/07 03:42:39;;;;;;;;;;;18.20;52.10;;;;;;5072213;28;19912;-53
2023/01/07 03:45:14;;;;;;;;;;;18.20;52.10;;;;;;5067011;28;19913;-53
2023/01/07 03:47:41;;;;;;;;;;;18.10;52.10;;;;;;5071954;28;19957;-52
2023/01/07 03:50:07;;;;;;;;;;;18.20;52.10;;;;;;5075990;28;19912;-53
2023/01/07 03:52:32;;;;;;;;;;;18.20;52.10;;;;;;5073328;28;20589;-53
2023/01/07 03:54:57;;;;;;;;;;;18.10;52.10;;;;;;5062049;28;19932;-53
2023/01/07 03:57:23;;;;;;;;;;;18.10;52.10;;;;;;5072558;28;19959;-52
2023/01/07 03:59:48;;;;;;;;;;;18.10;52.10;;;;;;5072719;28;19917;-53
2023/01/07 04:02:14;;;;;;;;;;;18.10;52.10;;;;;;5072222;28;19951;-52
2023/01/07 04:04:39;;;;;;;;;;;18.10;52.20;;;;;;5083965;28;19958;-52
2023/01/07 04:07:05;;;;;;;;;;;18.10;52.20;;;;;;5072523;28;19917;-53
2023/01/07 04:09:30;;;;;;;;;;;18.00;52.10;;;;;;5071893;28;19913;-53
2023/01/07 04:11:55;;;;;;;;;;;18.00;52.20;;;;;;5072214;28;19954;-53
2023/01/07 04:14:21;;;;;;;;;;;18.00;52.20;;;;;;5072072;28;19920;-52
2023/01/07 04:16:49;;;;;;;;;;;18.00;52.20;;;;;;5071599;28;19932;-53
2023/01/07 04:19:15;;;;;;;;;;;18.00;52.20;;;;;;5071882;28;20007;-53
2023/01/07 04:21:41;;;;;;;;;;;18.00;52.30;;;;;;5070026;28;20411;-53
2023/01/07 04:24:06;;;;;;;;;;;18.00;52.20;;;;;;5071121;28;20007;-52
2023/01/07 04:26:32;;;;;;;;;;;18.00;52.20;;;;;;5080762;28;19908;-52
2023/01/07 04:28:58;;;;;;;;;;;18.00;52.20;;;;;;5072496;28;19923;-52
2023/01/07 04:31:23;;;;;;;;;;;18.10;52.20;;;;;;5071778;28;19916;-52
2023/01/07 04:33:49;;;;;;;;;;;18.10;52.10;;;;;;5072521;28;19919;-53
2023/01/07 04:36:14;;;;;;;;;;;18.10;52.10;;;;;;5072121;28;19956;-53
2023/01/07 04:38:39;;;;;;;;;;;18.10;51.90;;;;;;5072552;28;20007;-53
2023/01/07 04:41:05;;;;;;;;;;;18.20;51.90;;;;;;5071226;28;19916;-53
2023/01/07 04:43:30;;;;;;;;;;;18.20;51.80;;;;;;5070228;28;19955;-53
2023/01/07 04:45:56;;;;;;;;;;;18.30;51.80;;;;;;5083131;28;20007;-53
2023/01/07 04:48:21;;;;;;;;;;;18.30;51.70;;;;;;5071664;28;19912;-53
2023/01/07 04:50:47;;;;;;;;;;;18.30;51.70;;;;;;5071071;28;20280;-54
2023/01/07 04:53:12;;;;;;;;;;;18.20;51.70;;;;;;5070489;28;20391;-52
2023/01/07 04:55:38;;;;;;;;;;;18.20;51.80;;;;;;5069657;28;19970;-51
2023/01/07 04:58:03;;;;;;;;;;;18.20;51.80;;;;;;5070543;28;19917;-52
2023/01/07 05:00:29;;;;;;;;;;;18.20;51.80;;;;;;5071053;28;19908;-53
2023/01/07 05:02:54;;;;;;;;;;;18.20;51.90;;;;;;5071785;28;19919;-52
2023/01/07 05:05:20;;;;;;;;;;;18.10;51.90;;;;;;5071309;28;19908;-52
2023/01/07 05:07:45;;;;;;;;;;;18.10;52.00;;;;;;5071848;28;19963;-52
2023/01/07 05:10:11;;;;;;;;;;;18.10;52.00;;;;;;5071264;28;20260;-51
2023/01/07 05:12:36;;;;;;;;;;;18.20;52.00;;;;;;5070813;28;19962;-52
2023/01/07 05:15:02;;;;;;;;;;;18.20;51.90;;;;;;5069919;28;19927;-52
2023/01/07 05:17:28;;;;;;;;;;;18.20;51.80;;;;;;5075486;28;19913;-53
2023/01/07 05:19:53;;;;;;;;;;;18.20;51.80;;;;;;5075213;28;19973;-52
2023/01/07 05:22:18;;;;;;;;;;;18.20;51.80;;;;;;5073081;28;19924;-52
2023/01/07 05:24:44;;;;;;;;;;;18.30;51.80;;;;;;5073354;28;20403;-52
2023/01/07 05:27:09;;;;;;;;;;;18.20;51.80;;;;;;5074511;28;20360;-52
2023/01/07 05:29:35;;;;;;;;;;;18.20;51.90;;;;;;5072822;28;20349;-54
2023/01/07 05:32:00;;;;;;;;;;;18.20;51.90;;;;;;5075192;28;20338;-54
2023/01/07 05:34:26;;;;;;;;;;;18.10;51.90;;;;;;5074750;28;19926;-54
2023/01/07 05:36:51;;;;;;;;;;;18.20;52.00;;;;;;5074031;28;19974;-53
2023/01/07 05:39:17;;;;;;;;;;;18.10;52.10;;;;;;5075155;28;19916;-53
2023/01/07 05:41:42;;;;;;;;;;;18.10;52.10;;;;;;5073292;28;19936;-53
2023/01/07 05:44:07;;;;;;;;;;;18.10;52.20;;;;;;5071859;28;19930;-53
2023/01/07 05:46:33;;;;;;;;;;;18.10;52.20;;;;;;5075390;28;19966;-53
2023/01/07 05:48:58;;;;;;;;;;;18.00;52.20;;;;;;5073979;28;19917;-53
2023/01/07 05:51:24;;;;;;;;;;;18.00;52.20;;;;;;5073719;28;19923;-53
2023/01/07 05:53:49;;;;;;;;;;;18.00;52.30;;;;;;5066529;28;19912;-53
2023/01/07 05:56:14;;;;;;;;;;;18.00;52.40;;;;;;5070445;28;19919;-53
2023/01/07 05:58:40;;;;;;;;;;;18.00;52.40;;;;;;5075158;28;19913;-53
2023/01/07 06:01:05;;;;;;;;;;;18.00;52.30;;;;;;5074669;28;19919;-53
2023/01/07 06:03:31;;;;;;;;;;;18.00;52.20;;;;;;5074429;28;19912;-53
2023/01/07 06:05:56;;;;;;;;;;;18.00;52.20;;;;;;5074621;28;19920;-53
2023/01/07 06:08:22;;;;;;;;;;;18.00;52.30;;;;;;5074981;28;20286;-53
2023/01/07 06:10:47;;;;;;;;;;;18.00;52.30;;;;;;5074678;28;20429;-53
2023/01/07 06:13:12;;;;;;;;;;;18.00;52.40;;;;;;5074751;28;19916;-53
2023/01/07 06:15:38;;;;;;;;;;;18.00;52.30;;;;;;5074619;28;19920;-53
2023/01/07 06:18:03;;;;;;;;;;;18.00;52.30;;;;;;5080837;28;20011;-53
2023/01/07 06:20:33;;;;;;;;;;;18.00;52.30;;;;;;5072684;28;20376;-53
2023/01/07 06:22:59;;;;;;;;;;;18.00;52.30;;;;;;5073273;28;20015;-53
2023/01/07 06:25:24;;;;;;;;;;;18.00;52.40;;;;;;5064538;28;19948;-53
2023/01/07 06:27:50;;;;;;;;;;;18.00;52.30;;;;;;5073742;28;20324;-53
2023/01/07 06:30:15;;;;;;;;;;;18.00;52.40;;;;;;5074312;28;19918;-53
2023/01/07 06:32:41;;;;;;;;;;;18.00;52.40;;;;;;5073631;28;20379;-53
2023/01/07 06:35:07;;;;;;;;;;;18.00;52.30;;;;;;5073608;28;19916;-53
2023/01/07 06:37:33;;;;;;;;;;;18.00;52.30;;;;;;5074339;28;19913;-53
2023/01/07 06:39:58;;;;;;;;;;;18.00;52.30;;;;;;5073394;28;19921;-53
2023/01/07 06:42:24;;;;;;;;;;;18.00;52.30;;;;;;5072844;28;19955;-54
2023/01/07 06:44:49;;;;;;;;;;;18.00;52.30;;;;;;5067497;28;20007;-54
2023/01/07 06:47:14;;;;;;;;;;;18.10;52.30;;;;;;5072978;28;19916;-54
2023/01/07 06:49:40;;;;;;;;;;;18.10;52.20;;;;;;5073502;28;19912;-52
2023/01/07 06:52:05;;;;;;;;;;;18.10;52.30;;;;;;5073595;28;19923;-53
2023/01/07 06:54:31;;;;;;;;;;;18.00;52.30;;;;;;5073604;28;19917;-54
2023/01/07 06:56:56;;;;;;;;;;;18.10;52.40;;;;;;5072922;28;19916;-53
2023/01/07 06:59:22;;;;;;;;;;;18.00;52.20;;;;;;5072940;28;19913;-51
2023/01/07 07:01:47;;;;;;;;;;;18.10;52.40;;;;;;5070582;28;19919;-54
2023/01/07 07:04:12;;;;;;;;;;;18.10;52.30;;;;;;5070305;28;19919;-54
2023/01/07 07:06:38;;;;;;;;;;;18.00;52.30;;;;;;5072970;28;19942;-53
2023/01/07 07:09:03;;;;;;;;;;;18.00;52.30;;;;;;5073675;28;20334;-53
2023/01/07 07:11:29;;;;;;;;;;;18.00;52.30;;;;;;5072496;28;20325;-52
2023/01/07 07:13:54;;;;;;;;;;;18.00;52.40;;;;;;5072498;28;19920;-52
2023/01/07 07:16:21;;;;;;;;;;;18.00;52.50;;;;;;5069635;28;19912;-52
2023/01/07 07:18:46;;;;;;;;;;;18.00;52.50;;;;;;5071093;28;20057;-52
2023/01/07 07:21:12;;;;;;;;;;;18.00;52.50;;;;;;5072482;28;20015;-52
2023/01/07 07:23:37;;;;;;;;;;;17.90;52.50;;;;;;5071167;28;19916;-52
2023/01/07 07:26:03;;;;;;;;;;;18.00;52.60;;;;;;5072999;28;20296;-51
2023/01/07 07:28:28;;;;;;;;;;;18.00;52.60;;;;;;5073016;28;20364;-53
2023/01/07 07:30:54;;;;;;;;;;;18.00;52.60;;;;;;5072211;28;20299;-53
2023/01/07 07:33:19;;;;;;;;;;;17.90;52.60;;;;;;5081252;28;20289;-52
2023/01/07 07:35:44;;;;;;;;;;;17.90;52.70;;;;;;5093567;28;19940;-51
2023/01/07 07:38:10;;;;;;;;;;;17.90;52.70;;;;;;5093472;28;19908;-53
2023/01/07 07:40:35;;;;;;;;;;;17.90;52.80;;;;;;5079971;28;20372;-53
2023/01/07 07:43:01;;;;;;;;;;;17.90;52.80;;;;;;5072310;28;19958;-54
2023/01/07 07:45:26;;;;;;;;;;;17.90;52.80;;;;;;5064681;28;19920;-51
2023/01/07 07:47:52;;;;;;;;;;;17.90;52.70;;;;;;5073856;28;20372;-53
2023/01/07 07:50:17;;;;;;;;;;;17.90;52.80;;;;;;5072023;28;19920;-53
2023/01/07 07:52:42;;;;;;;;;;;17.90;52.90;;;;;;5072218;28;19927;-53
2023/01/07 07:55:08;;;;;;;;;;;17.90;53.00;;;;;;5072836;28;19920;-54
2023/01/07 07:57:33;;;;;;;;;;;17.80;52.90;;;;;;5069020;28;19916;-54
2023/01/07 07:59:59;;;;;;;;;;;17.80;53.00;;;;;;5070786;28;19912;-54
2023/01/07 08:02:24;;;;;;;;;;;17.80;53.10;;;;;;5057427;28;19974;-53
2023/01/07 08:04:50;;;;;;;;;;;17.80;53.10;;;;;;5063785;28;19920;-54
2023/01/07 08:07:15;;;;;;;;;;;17.80;53.10;;;;;;5070941;28;19982;-53
2023/01/07 08:09:41;;;;;;;;;;;17.80;53.10;;;;;;5071041;28;19912;-53
2023/01/07 08:12:06;;;;;;;;;;;17.90;53.10;;;;;;5070457;28;19924;-53
2023/01/07 08:14:31;;;;;;;;;;;17.90;53.10;;;;;;5071403;28;19918;-53
2023/01/07 08:16:57;;;;;;;;;;;17.90;53.10;;;;;;5103963;28;19916;-53
2023/01/07 08:19:22;;;;;;;;;;;17.90;53.10;;;;;;5072568;28;19919;-52
2023/01/07 08:21:49;;;;;;;;;;;17.90;52.90;;;;;;5071964;28;19981;-52
2023/01/07 08:24:14;;;;;;;;;;;17.90;53.00;;;;;;5072859;28;19912;-52
2023/01/07 08:26:40;;;;;;;;;;;17.90;52.90;;;;;;5071371;28;19919;-51
2023/01/07 08:29:05;;;;;;;;;;;17.90;52.90;;;;;;5072507;28;19935;-54
2023/01/07 08:31:31;;;;;;;;;;;17.90;52.90;;;;;;5072504;28;19924;-53
2023/01/07 08:33:56;;;;;;;;;;;17.90;52.90;;;;;;5072603;28;19913;-53
2023/01/07 08:36:21;;;;;;;;;;;17.90;53.00;;;;;;5071859;28;19992;-53
2023/01/07 08:38:50;;;;;;;;;;;17.90;53.10;;;;;;5073023;28;19919;-53
2023/01/07 08:41:16;;;;;;;;;;;17.90;53.30;;;;;;5077629;28;19912;-53
2023/01/07 08:43:43;;;;;;;;;;;17.90;53.20;;;;;;5070088;28;19913;-53
2023/01/07 08:46:09;;;;;;;;;;;17.80;53.20;;;;;;5067434;28;19956;-53
2023/01/07 08:48:34;;;;;;;;;;;17.80;53.30;;;;;;5071825;28;19924;-53
2023/01/07 08:51:00;;;;;;;;;;;17.80;53.40;;;;;;5074204;28;19913;-53
2023/01/07 08:53:25;;;;;;;;;;;17.80;53.50;;;;;;5072050;28;19990;-53
2023/01/07 08:55:50;;;;;;;;;;;17.70;53.60;;;;;;5079362;28;20272;-53
2023/01/07 08:58:16;;;;;;;;;;;17.70;53.80;;;;;;5073959;28;20580;-53
2023/01/07 09:00:41;;;;;;;;;;;17.80;53.90;;;;;;5074588;28;19912;-53
2023/01/07 09:03:07;;;;;;;;;;;17.70;53.90;;;;;;5069788;28;19923;-53
2023/01/07 09:05:32;;;;;;;;;;;17.70;53.90;;;;;;5072194;28;19916;-53
2023/01/07 09:07:58;;;;;;;;;;;17.70;53.90;;;;;;5073219;28;20010;-53
2023/01/07 09:10:23;;;;;;;;;;;17.80;53.90;;;;;;5066818;28;19924;-53
2023/01/07 09:12:49;;;;;;;;;;;17.80;53.90;;;;;;5070676;28;20430;-53
2023/01/07 09:15:14;;;;;;;;;;;17.80;53.90;;;;;;5071515;28;20391;-53
2023/01/07 09:17:40;;;;;;;;;;;17.70;54.00;;;;;;5071939;28;19912;-53
2023/01/07 09:20:05;;;;;;;;;;;17.70;54.10;;;;;;5074380;28;19909;-53
2023/01/07 09:22:31;;;;;;;;;;;17.80;54.10;;;;;;5070786;28;19931;-53
2023/01/07 09:24:57;;;;;;;;;;;17.80;54.30;;;;;;5072420;28;20398;-53
2023/01/07 09:27:22;;;;;;;;;;;17.70;54.40;;;;;;5074606;28;19920;-53
2023/01/07 09:29:47;;;;;;;;;;;17.70;54.50;;;;;;5075788;28;19917;-53
2023/01/07 09:32:13;;;;;;;;;;;17.70;54.40;;;;;;5065181;28;19939;-53
2023/01/07 09:34:38;;;;;;;;;;;17.70;54.50;;;;;;5055578;28;20357;-53
2023/01/07 09:37:04;;;;;;;;;;;17.60;54.60;;;;;;5070360;28;20350;-54
2023/01/07 09:39:29;;;;;;;;;;;17.60;54.70;;;;;;5074070;28;19921;-53
2023/01/07 09:42:08;;;;;;;;;;;17.60;54.70;;;;;;5074418;28;20018;-53
2023/01/07 09:44:52;;;;;;;;;;;17.60;54.60;;;;;;5070792;28;20315;-53
2023/01/07 09:47:18;;;;;;;;;;;17.60;54.70;;;;;;5074779;28;20369;-54
2023/01/07 09:49:43;;;;;;;;;;;17.60;54.70;;;;;;5073245;28;19923;-53
2023/01/07 09:52:16;;;;;;;;;;;17.60;54.70;;;;;;5067648;28;19970;-51
2023/01/07 09:54:42;;;;;;;;;;;17.70;54.60;;;;;;5069296;28;19935;-53
2023/01/07 09:57:07;;;;;;;;;;;17.70;54.70;;;;;;5073087;28;19999;-53
2023/01/07 09:59:33;;;;;;;;;;;17.70;54.80;;;;;;5070960;28;19960;-53
2023/01/07 10:02:00;;;;;;;;;;;17.70;54.70;;;;;;5069413;28;19952;-53
2023/01/07 10:04:48;;;;;;;;;;;17.70;54.70;;;;;;5058521;28;19958;-53
2023/01/07 10:07:14;;;;;;;;;;;17.70;54.70;;;;;;5107753;28;19923;-53
2023/01/07 10:09:58;;;;;;;;;;;17.70;54.60;;;;;;5074095;28;19913;-53
2023/01/07 10:12:26;;;;;;;;;;;17.90;54.30;;;;;;5075472;28;19954;-53
2023/01/07 10:15:01;;;;;;;;;;;18.70;53.10;;;;;;5071789;28;20319;-52
2023/01/07 10:17:46;;;;;;;;;;;19.40;51.40;;;;;;5077362;28;19916;-51
2023/01/07 10:20:30;;;;;;;;;;;20.00;50.30;;;;;;5065058;28;20007;-53
2023/01/07 10:22:57;;;;;;;;;;;20.40;49.40;;;;;;5074379;28;19924;-54
2023/01/07 10:25:24;;;;;;;;;;;20.70;49.00;;;;;;5071364;28;19920;-54
2023/01/07 10:27:50;;;;;;;;;;;21.00;48.60;;;;;;5071819;28;20015;-52
2023/01/07 10:30:20;;;;;;;;;;;21.00;48.50;;;;;;5104731;28;19939;-53
2023/01/07 10:32:46;;;;;;;;;;;21.00;48.60;;;;;;5073495;28;20018;-52
2023/01/07 10:35:12;;;;;;;;;;;21.10;48.60;;;;;;5078235;28;20023;-52
2023/01/07 10:37:38;;;;;;;;;;;21.20;48.20;;;;;;5089563;28;19913;-52
2023/01/07 10:40:14;;;;;;;;;;;21.40;48.00;;;;;;5072370;28;19965;-53
2023/01/07 10:42:59;;;;;;;;;;;21.60;47.80;;;;;;5071130;28;19912;-53
2023/01/07 10:45:33;;;;;;;;;;;21.60;47.60;;;;;;5072034;28;19916;-53
2023/01/07 10:48:10;;;;;;;;;;;21.80;47.10;;;;;;5073115;28;20375;-53
2023/01/07 10:50:44;;;;;;;;;;;21.90;47.00;;;;;;5071963;28;19917;-53
2023/01/07 10:53:09;;;;;;;;;;;22.00;46.80;;;;;;5072046;28;19952;-52
2023/01/07 10:55:44;;;;;;;;;;;22.10;46.70;;;;;;5066278;28;20388;-52
2023/01/07 10:58:10;;;;;;;;;;;22.10;46.60;;;;;;5072478;28;19917;-51
2023/01/07 11:00:36;;;;;;;;;;;22.20;46.40;;;;;;5071818;28;19919;-52
2023/01/07 11:03:02;;;;;;;;;;;22.20;46.40;;;;;;5067819;28;20288;-52
2023/01/07 11:05:31;;;;;;;;;;;22.20;46.60;;;;;;5067955;28;19912;-53
2023/01/07 11:07:57;;;;;;;;;;;22.20;46.50;;;;;;5067216;28;19913;-53
2023/01/07 11:10:23;;;;;;;;;;;22.20;46.60;;;;;;5076868;28;19912;-51
2023/01/07 11:12:49;;;;;;;;;;;22.20;46.70;;;;;;5069594;28;19931;-52
2023/01/07 11:15:18;;;;;;;;;;;22.10;46.90;;;;;;5071847;28;19999;-52
2023/01/07 11:17:45;;;;;;;;;;;22.20;46.80;;;;;;5067707;28;19913;-52
2023/01/07 11:20:11;;;;;;;;;;;22.10;46.90;;;;;;5081718;28;19912;-52
2023/01/07 11:22:37;;;;;;;;;;;22.10;47.20;;;;;;5057784;28;19936;-52
2023/01/07 11:25:24;;;;;;;;;;;22.00;47.10;;;;;;5068332;28;19919;-53
2023/01/07 11:27:50;;;;;;;;;;;22.00;47.40;;;;;;5071228;28;19948;-52
2023/01/07 11:30:20;;;;;;;;;;;21.90;47.40;;;;;;5074092;28;19951;-53
2023/01/07 11:32:51;;;;;;;;;;;21.90;47.60;;;;;;5071764;28;20319;-53
2023/01/07 11:35:20;;;;;;;;;;;22.00;47.40;;;;;;5065969;28;20308;-53
2023/01/07 11:37:46;;;;;;;;;;;22.10;47.20;;;;;;5072070;28;19919;-53
2023/01/07 11:40:12;;;;;;;;;;;22.10;47.20;;;;;;5082871;28;19920;-52
2023/01/07 11:42:46;;;;;;;;;;;22.10;47.40;;;;;;5082593;28;19919;-52
2023/01/07 11:45:12;;;;;;;;;;;22.00;47.40;;;;;;5065968;28;19913;-52
2023/01/07 11:47:38;;;;;;;;;;;22.00;47.60;;;;;;5062526;28;19920;-52
2023/01/07 11:50:03;;;;;;;;;;;22.00;47.50;;;;;;5070655;28;19950;-52
2023/01/07 11:52:29;;;;;;;;;;;22.10;47.40;;;;;;5070078;28;19960;-52
2023/01/07 11:54:54;;;;;;;;;;;22.10;47.40;;;;;;5067746;28;19919;-53
2023/01/07 11:57:21;;;;;;;;;;;22.10;47.60;;;;;;5071729;28;19917;-52
2023/01/07 11:59:47;;;;;;;;;;;22.10;47.50;;;;;;5069133;28;19912;-53
2023/01/07 12:02:21;;;;;;;;;;;22.20;47.40;;;;;;5072262;28;20318;-53
2023/01/07 12:04:46;;;;;;;;;;;22.50;46.80;;;;;;5069791;28;19913;-52
2023/01/07 12:07:12;;;;;;;;;;;22.80;46.20;;;;;;5070290;28;19919;-52
2023/01/07 12:09:38;;;;;;;;;;;23.00;45.80;;;;;;5061833;28;19913;-52
2023/01/07 12:12:30;;;;;;;;;;;23.20;45.50;;;;;;5062696;28;19946;-53
2023/01/07 12:14:52;;;;;;;;;;;23.40;45.30;;;;;;5070180;28;19913;-53
2023/01/07 12:17:18;;;;;;;;;;;23.50;44.90;;;;;;5070208;28;20470;-52
2023/01/07 12:19:57;;;;;;;;;;;23.50;44.90;;;;;;5071519;28;20430;-53
2023/01/07 12:22:41;;;;;;;;;;;23.50;45.00;;;;;;5071873;28;19979;-52
2023/01/07 12:25:10;;;;;;;;;;;23.40;45.00;;;;;;5073664;28;19916;-52
2023/01/07 12:27:38;;;;;;;;;;;23.40;45.10;;;;;;5108920;28;19920;-53
2023/01/07 12:30:13;;;;;;;;;;;23.40;45.20;;;;;;5078875;28;19916;-52
2023/01/07 12:32:45;;;;;;;;;;;23.50;45.30;;;;;;5068461;28;19924;-54
2023/01/07 12:35:13;;;;;;;;;;;23.40;45.50;;;;;;5071893;28;19974;-53
2023/01/07 12:37:42;;;;;;;;;;;23.40;45.50;;;;;;5061627;28;19956;-53
2023/01/07 12:40:11;;;;;;;;;;;23.50;45.50;;;;;;5102705;28;20387;-53
2023/01/07 12:42:38;;;;;;;;;;;23.50;45.80;;;;;;5069794;28;19913;-53
2023/01/07 12:45:04;;;;;;;;;;;23.40;45.90;;;;;;5070754;28;19919;-52
2023/01/07 12:47:33;;;;;;;;;;;23.30;46.30;;;;;;5061067;28;19917;-52
2023/01/07 12:50:00;;;;;;;;;;;23.20;46.30;;;;;;5092059;28;20403;-55
2023/01/07 12:52:33;;;;;;;;;;;23.30;46.30;;;;;;5076079;28;19924;-52
2023/01/07 12:55:00;;;;;;;;;;;23.40;46.30;;;;;;5074861;28;19908;-52
2023/01/07 12:57:35;;;;;;;;;;;23.40;46.40;;;;;;5067526;28;20036;-52
2023/01/07 13:00:07;;;;;;;;;;;23.40;46.50;;;;;;5067237;28;19920;-53
2023/01/07 13:02:38;;;;;;;;;;;23.40;46.50;;;;;;5075789;28;19917;-53
2023/01/07 13:05:06;;;;;;;;;;;23.30;46.50;;;;;;5075442;28;19913;-52
2023/01/07 13:07:41;;;;;;;;;;;23.40;46.60;;;;;;5075593;28;19916;-52
2023/01/07 13:10:12;;;;;;;;;;;23.40;46.70;;;;;;5079542;28;20445;-52
2023/01/07 13:12:41;;;;;;;;;;;23.30;46.70;;;;;;5074849;28;19917;-53
2023/01/07 13:15:22;;;;;;;;;;;23.30;46.80;;;;;;5108064;28;19954;-52
2023/01/07 13:17:48;;;;;;;;;;;23.40;46.90;;;;;;5075549;28;19919;-53
2023/01/07 13:20:14;;;;;;;;;;;23.40;46.90;;;;;;5077593;28;19916;-53
2023/01/07 13:22:41;;;;;;;;;;;23.30;47.00;;;;;;5087642;28;20397;-52
2023/01/07 13:25:36;;;;;;;;;;;23.20;47.10;;;;;;5078692;28;19912;-52
2023/01/07 13:28:10;;;;;;;;;;;23.20;47.10;;;;;;5053353;28;19944;-52
2023/01/07 13:30:54;;;;;;;;;;;23.30;47.10;;;;;;5074319;28;19952;-52
2023/01/07 13:33:21;;;;;;;;;;;23.20;47.10;;;;;;5074497;28;20057;-52
2023/01/07 13:35:55;;;;;;;;;;;23.20;47.10;;;;;;5067177;28;19944;-54
2023/01/07 13:38:59;;;;;;;;;;;23.20;47.30;;;;;;5076305;28;19913;-54
2023/01/07 13:41:32;;;;;;;;;;;23.30;47.30;;;;;;5048434;28;19923;-53
2023/01/07 13:44:05;;;;;;;;;;;23.40;47.20;;;;;;5031718;28;20370;-53
2023/01/07 13:46:32;;;;;;;;;;;23.50;47.30;;;;;;5054913;28;19921;-54
2023/01/07 13:48:57;;;;;;;;;;;23.50;47.20;;;;;;5085770;28;20329;-52
2023/01/07 13:51:23;;;;;;;;;;;23.50;47.30;;;;;;5075995;28;19924;-53
2023/01/07 13:53:49;;;;;;;;;;;23.50;47.40;;;;;;5064551;28;19921;-52
2023/01/07 13:56:17;;;;;;;;;;;23.50;47.30;;;;;;5068807;28;20054;-52
2023/01/07 13:58:46;;;;;;;;;;;23.60;47.30;;;;;;5068711;28;20003;-54
2023/01/07 14:01:18;;;;;;;;;;;23.70;47.10;;;;;;5074281;28;19913;-52
2023/01/07 14:04:02;;;;;;;;;;;23.60;47.10;;;;;;5074054;28;20031;-52
2023/01/07 14:06:27;;;;;;;;;;;23.60;47.20;;;;;;5067638;28;19970;-53
2023/01/07 14:08:53;;;;;;;;;;;23.60;47.20;;;;;;5076340;28;19920;-51
2023/01/07 14:11:19;;;;;;;;;;;23.60;47.00;;;;;;5072490;28;20222;-53
2023/01/07 14:13:56;;;;;;;;;;;23.60;47.10;;;;;;5076034;28;19920;-53
2023/01/07 14:16:22;;;;;;;;;;;23.60;47.10;;;;;;5071686;28;20376;-53
2023/01/07 14:18:50;;;;;;;;;;;23.40;47.30;;;;;;5075524;28;19912;-54
2023/01/07 14:21:35;;;;;;;;;;;23.40;47.50;;;;;;5074171;28;19931;-52
2023/01/07 14:24:19;;;;;;;;;;;23.50;47.40;;;;;;5064816;28;19966;-52